sensor_id;sensor_type;location;lat;lon;timestamp;temperature;humidity
62998;DHT22;55949;52.590;7.330;2022-09-09T00:00:28;18.30;99.90
62998;DHT22;55949;52.590;7.330;2022-09-09T00:02:33;18.20;99.90
62998;DHT22;55949;52.590;7.330;2022-09-09T00:03:20;18.10;99.90
62998;DHT22;55949;52.590;7.330;2022-09-09T00:04:35;18.00;99.90
62998;DHT22;55949;52.590;7.330;2022-09-09T00:07:07;18.10;99.90
62998;DHT22;55949;52.590;7.330;2022-09-09T00:08:19;18.20;99.90
62998;DHT22;55949;52.590;7.330;2022-09-09T00:09:28;18.30;99.90
62998;DHT22;55949;52.590;7.330;2022-09-09T00:10:33;18.10;99.90
62998;DHT22;55949;52.590;7.330;2022-09-09T00:11:51;18.00;99.90
62998;DHT22;55949;52.590;7.330;2022-09-09T00:14:31;18.20;99.90
62998;DHT22;55949;52.590;7.330;2022-09-09T00:15:48;18.30;99.90
62998;DHT22;55949;52.590;7.330;2022-09-09T00:16:55;18.00;99.90
62998;DHT22;55949;52.590;7.330;2022-09-09T00:20:00;17.90;99.90
62998;DHT22;55949;52.590;7.330;2022-09-09T00:21:11;18.00;99.90
62998;DHT22;55949;52.590;7.330;2022-09-09T00:22:22;18.00;99.90
62998;DHT22;55949;52.590;7.330;2022-09-09T00:23:33;18.00;99.90
62998;DHT22;55949;52.590;7.330;2022-09-09T00:27:41;17.80;99.90
62998;DHT22;55949;52.590;7.330;2022-09-09T00:28:52;17.70;99.90
62998;DHT22;55949;52.590;7.330;2022-09-09T00:30:12;17.60;99.90
62998;DHT22;55949;52.590;7.330;2022-09-09T00:31:23;17.60;99.90
62998;DHT22;55949;52.590;7.330;2022-09-09T00:32:29;17.60;99.90
62998;DHT22;55949;52.590;7.330;2022-09-09T00:33:31;17.40;99.90
62998;DHT22;55949;52.590;7.330;2022-09-09T00:34:33;17.40;99.90
62998;DHT22;55949;52.590;7.330;2022-09-09T00:35:39;17.50;99.90
62998;DHT22;55949;52.590;7.330;2022-09-09T00:36:42;17.80;99.90
62998;DHT22;55949;52.590;7.330;2022-09-09T00:37:46;17.90;99.90
62998;DHT22;55949;52.590;7.330;2022-09-09T00:38:52;18.00;99.90
62998;DHT22;55949;52.590;7.330;2022-09-09T00:39:58;18.20;99.90
62998;DHT22;55949;52.590;7.330;2022-09-09T00:42:25;18.10;99.90
62998;DHT22;55949;52.590;7.330;2022-09-09T00:43:37;18.20;99.90
62998;DHT22;55949;52.590;7.330;2022-09-09T00:44:38;18.10;99.90
62998;DHT22;55949;52.590;7.330;2022-09-09T00:50:10;18.00;99.90
62998;DHT22;55949;52.590;7.330;2022-09-09T00:56:31;18.10;99.90
62998;DHT22;55949;52.590;7.330;2022-09-09T00:57:36;18.20;99.90
62998;DHT22;55949;52.590;7.330;2022-09-09T00:58:36;18.10;99.90
62998;DHT22;55949;52.590;7.330;2022-09-09T01:01:15;17.80;99.90
62998;DHT22;55949;52.590;7.330;2022-09-09T01:02:44;17.80;99.90
62998;DHT22;55949;52.590;7.330;2022-09-09T01:03:53;17.90;99.90
62998;DHT22;55949;52.590;7.330;2022-09-09T01:04:54;18.00;99.90
62998;DHT22;55949;52.590;7.330;2022-09-09T01:07:23;17.90;99.90
62998;DHT22;55949;52.590;7.330;2022-09-09T01:10:11;17.70;99.90
62998;DHT22;55949;52.590;7.330;2022-09-09T01:12:42;17.60;99.90
62998;DHT22;55949;52.590;7.330;2022-09-09T01:13:45;17.50;99.90
62998;DHT22;55949;52.590;7.330;2022-09-09T01:14:50;17.70;99.90
62998;DHT22;55949;52.590;7.330;2022-09-09T01:15:53;17.70;99.90
62998;DHT22;55949;52.590;7.330;2022-09-09T01:16:59;17.90;99.90
62998;DHT22;55949;52.590;7.330;2022-09-09T01:18:07;17.90;99.90
62998;DHT22;55949;52.590;7.330;2022-09-09T01:19:17;18.00;99.90
62998;DHT22;55949;52.590;7.330;2022-09-09T01:21:01;18.10;99.90
62998;DHT22;55949;52.590;7.330;2022-09-09T01:22:26;18.20;99.90
62998;DHT22;55949;52.590;7.330;2022-09-09T01:25:12;18.10;99.90
62998;DHT22;55949;52.590;7.330;2022-09-09T01:27:34;18.10;99.90
62998;DHT22;55949;52.590;7.330;2022-09-09T01:28:36;18.10;99.90
62998;DHT22;55949;52.590;7.330;2022-09-09T01:29:37;17.90;99.90
62998;DHT22;55949;52.590;7.330;2022-09-09T01:30:40;17.90;99.90
62998;DHT22;55949;52.590;7.330;2022-09-09T01:32:01;18.00;99.90
62998;DHT22;55949;52.590;7.330;2022-09-09T01:33:03;18.00;99.90
62998;DHT22;55949;52.590;7.330;2022-09-09T01:34:14;18.10;99.90
62998;DHT22;55949;52.590;7.330;2022-09-09T01:36:42;18.10;99.90
62998;DHT22;55949;52.590;7.330;2022-09-09T01:37:45;18.10;99.90
62998;DHT22;55949;52.590;7.330;2022-09-09T01:38:45;18.10;99.90
62998;DHT22;55949;52.590;7.330;2022-09-09T01:39:46;18.10;99.90
62998;DHT22;55949;52.590;7.330;2022-09-09T01:40:48;18.10;99.90
62998;DHT22;55949;52.590;7.330;2022-09-09T01:41:49;18.10;99.90
62998;DHT22;55949;52.590;7.330;2022-09-09T01:42:50;18.10;99.90
62998;DHT22;55949;52.590;7.330;2022-09-09T01:43:53;18.10;99.90
62998;DHT22;55949;52.590;7.330;2022-09-09T01:44:55;18.10;99.90
62998;DHT22;55949;52.590;7.330;2022-09-09T01:45:59;18.10;99.90
62998;DHT22;55949;52.590;7.330;2022-09-09T01:47:00;18.00;99.90
62998;DHT22;55949;52.590;7.330;2022-09-09T01:48:01;18.00;99.90
62998;DHT22;55949;52.590;7.330;2022-09-09T01:49:05;18.10;99.90
62998;DHT22;55949;52.590;7.330;2022-09-09T01:50:09;18.00;99.90
62998;DHT22;55949;52.590;7.330;2022-09-09T01:51:11;18.10;99.90
62998;DHT22;55949;52.590;7.330;2022-09-09T01:52:12;18.20;99.90
62998;DHT22;55949;52.590;7.330;2022-09-09T01:53:14;18.00;99.90
62998;DHT22;55949;52.590;7.330;2022-09-09T01:54:16;18.10;99.90
62998;DHT22;55949;52.590;7.330;2022-09-09T01:55:19;18.10;99.90
62998;DHT22;55949;52.590;7.330;2022-09-09T01:57:49;18.20;99.90
62998;DHT22;55949;52.590;7.330;2022-09-09T02:00:11;18.20;99.90
62998;DHT22;55949;52.590;7.330;2022-09-09T02:03:46;17.90;99.90
62998;DHT22;55949;52.590;7.330;2022-09-09T02:04:54;17.80;99.90
62998;DHT22;55949;52.590;7.330;2022-09-09T02:06:08;17.80;99.90
62998;DHT22;55949;52.590;7.330;2022-09-09T02:07:30;17.80;99.90
62998;DHT22;55949;52.590;7.330;2022-09-09T02:08:46;17.80;99.90
62998;DHT22;55949;52.590;7.330;2022-09-09T02:09:55;17.70;99.90
62998;DHT22;55949;52.590;7.330;2022-09-09T02:12:16;17.80;99.90
62998;DHT22;55949;52.590;7.330;2022-09-09T02:13:19;17.80;99.90
62998;DHT22;55949;52.590;7.330;2022-09-09T02:14:25;17.80;99.90
62998;DHT22;55949;52.590;7.330;2022-09-09T02:16:50;17.90;99.90
62998;DHT22;55949;52.590;7.330;2022-09-09T02:17:52;17.80;99.90
62998;DHT22;55949;52.590;7.330;2022-09-09T02:19:12;17.90;99.90
62998;DHT22;55949;52.590;7.330;2022-09-09T02:20:16;17.80;99.90
62998;DHT22;55949;52.590;7.330;2022-09-09T02:21:18;17.80;99.90
62998;DHT22;55949;52.590;7.330;2022-09-09T02:22:22;17.90;99.90
62998;DHT22;55949;52.590;7.330;2022-09-09T02:23:24;17.90;99.90
62998;DHT22;55949;52.590;7.330;2022-09-09T02:24:27;17.80;99.90
62998;DHT22;55949;52.590;7.330;2022-09-09T02:25:29;17.90;99.90
62998;DHT22;55949;52.590;7.330;2022-09-09T02:26:32;17.80;99.90
62998;DHT22;55949;52.590;7.330;2022-09-09T02:27:34;17.60;99.90
62998;DHT22;55949;52.590;7.330;2022-09-09T02:28:37;17.70;99.90
62998;DHT22;55949;52.590;7.330;2022-09-09T02:29:42;17.80;99.90
62998;DHT22;55949;52.590;7.330;2022-09-09T02:30:46;17.80;99.90
62998;DHT22;55949;52.590;7.330;2022-09-09T02:31:49;17.70;99.90
62998;DHT22;55949;52.590;7.330;2022-09-09T02:32:52;17.70;99.90
62998;DHT22;55949;52.590;7.330;2022-09-09T02:34:01;17.80;99.90
62998;DHT22;55949;52.590;7.330;2022-09-09T02:35:09;17.60;99.90
62998;DHT22;55949;52.590;7.330;2022-09-09T02:36:12;17.30;99.90
62998;DHT22;55949;52.590;7.330;2022-09-09T02:37:19;17.20;99.90
62998;DHT22;55949;52.590;7.330;2022-09-09T02:38:21;17.30;99.90
62998;DHT22;55949;52.590;7.330;2022-09-09T02:39:22;17.20;99.90
62998;DHT22;55949;52.590;7.330;2022-09-09T02:40:23;17.30;99.90
62998;DHT22;55949;52.590;7.330;2022-09-09T02:41:27;17.30;99.90
62998;DHT22;55949;52.590;7.330;2022-09-09T02:42:30;17.40;99.90
62998;DHT22;55949;52.590;7.330;2022-09-09T02:43:33;17.40;99.90
62998;DHT22;55949;52.590;7.330;2022-09-09T02:44:34;17.40;99.90
62998;DHT22;55949;52.590;7.330;2022-09-09T02:48:35;17.10;99.90
62998;DHT22;55949;52.590;7.330;2022-09-09T02:50:24;17.10;99.90
62998;DHT22;55949;52.590;7.330;2022-09-09T02:54:28;17.70;99.90
62998;DHT22;55949;52.590;7.330;2022-09-09T02:55:54;17.60;99.90
62998;DHT22;55949;52.590;7.330;2022-09-09T02:56:56;17.70;99.90
62998;DHT22;55949;52.590;7.330;2022-09-09T02:57:59;17.60;99.90
62998;DHT22;55949;52.590;7.330;2022-09-09T02:59:05;17.30;99.90
62998;DHT22;55949;52.590;7.330;2022-09-09T03:00:07;17.30;99.90
62998;DHT22;55949;52.590;7.330;2022-09-09T03:01:08;17.00;99.90
62998;DHT22;55949;52.590;7.330;2022-09-09T03:02:09;16.80;99.90
62998;DHT22;55949;52.590;7.330;2022-09-09T03:03:10;16.80;99.90
62998;DHT22;55949;52.590;7.330;2022-09-09T03:04:11;16.80;99.90
62998;DHT22;55949;52.590;7.330;2022-09-09T03:05:11;16.80;99.90
62998;DHT22;55949;52.590;7.330;2022-09-09T03:06:13;16.90;99.90
62998;DHT22;55949;52.590;7.330;2022-09-09T03:07:14;16.80;99.90
62998;DHT22;55949;52.590;7.330;2022-09-09T03:08:16;16.80;99.90
62998;DHT22;55949;52.590;7.330;2022-09-09T03:09:17;16.90;99.90
62998;DHT22;55949;52.590;7.330;2022-09-09T03:10:18;16.90;99.90
62998;DHT22;55949;52.590;7.330;2022-09-09T03:11:19;16.90;99.90
62998;DHT22;55949;52.590;7.330;2022-09-09T03:12:20;16.90;99.90
62998;DHT22;55949;52.590;7.330;2022-09-09T03:13:21;16.90;99.90
62998;DHT22;55949;52.590;7.330;2022-09-09T03:14:22;16.90;99.90
62998;DHT22;55949;52.590;7.330;2022-09-09T03:15:25;17.00;99.90
62998;DHT22;55949;52.590;7.330;2022-09-09T03:16:29;17.10;99.90
62998;DHT22;55949;52.590;7.330;2022-09-09T03:17:30;17.10;99.90
62998;DHT22;55949;52.590;7.330;2022-09-09T03:18:31;17.20;99.90
62998;DHT22;55949;52.590;7.330;2022-09-09T03:19:32;17.30;99.90
62998;DHT22;55949;52.590;7.330;2022-09-09T03:20:33;17.40;99.90
62998;DHT22;55949;52.590;7.330;2022-09-09T03:21:34;17.30;99.90
62998;DHT22;55949;52.590;7.330;2022-09-09T03:22:35;17.30;99.90
62998;DHT22;55949;52.590;7.330;2022-09-09T03:23:35;17.30;99.90
62998;DHT22;55949;52.590;7.330;2022-09-09T03:24:36;17.30;99.90
62998;DHT22;55949;52.590;7.330;2022-09-09T03:25:37;17.30;99.90
62998;DHT22;55949;52.590;7.330;2022-09-09T03:26:37;17.20;99.90
62998;DHT22;55949;52.590;7.330;2022-09-09T03:27:38;17.20;99.90
62998;DHT22;55949;52.590;7.330;2022-09-09T03:28:39;17.20;99.90
62998;DHT22;55949;52.590;7.330;2022-09-09T03:29:40;17.20;99.90
62998;DHT22;55949;52.590;7.330;2022-09-09T03:30:41;17.20;99.90
62998;DHT22;55949;52.590;7.330;2022-09-09T03:31:41;17.30;99.90
62998;DHT22;55949;52.590;7.330;2022-09-09T03:32:43;17.30;99.90
62998;DHT22;55949;52.590;7.330;2022-09-09T03:33:44;17.40;99.90
62998;DHT22;55949;52.590;7.330;2022-09-09T03:34:45;17.40;99.90
62998;DHT22;55949;52.590;7.330;2022-09-09T03:35:49;17.40;99.90
62998;DHT22;55949;52.590;7.330;2022-09-09T03:36:51;17.50;99.90
62998;DHT22;55949;52.590;7.330;2022-09-09T03:37:52;17.40;99.90
62998;DHT22;55949;52.590;7.330;2022-09-09T03:38:53;17.40;99.90
62998;DHT22;55949;52.590;7.330;2022-09-09T03:39:55;17.60;99.90
62998;DHT22;55949;52.590;7.330;2022-09-09T03:40:56;17.60;99.90
62998;DHT22;55949;52.590;7.330;2022-09-09T03:42:00;17.50;99.90
62998;DHT22;55949;52.590;7.330;2022-09-09T03:43:04;17.40;99.90
62998;DHT22;55949;52.590;7.330;2022-09-09T03:44:05;17.40;99.90
62998;DHT22;55949;52.590;7.330;2022-09-09T03:45:08;17.50;99.90
62998;DHT22;55949;52.590;7.330;2022-09-09T03:46:09;17.60;99.90
62998;DHT22;55949;52.590;7.330;2022-09-09T03:47:10;17.70;99.90
62998;DHT22;55949;52.590;7.330;2022-09-09T03:48:11;17.70;99.90
62998;DHT22;55949;52.590;7.330;2022-09-09T03:49:12;17.50;99.90
62998;DHT22;55949;52.590;7.330;2022-09-09T03:50:13;17.40;99.90
62998;DHT22;55949;52.590;7.330;2022-09-09T03:51:14;17.50;99.90
62998;DHT22;55949;52.590;7.330;2022-09-09T03:52:16;17.40;99.90
62998;DHT22;55949;52.590;7.330;2022-09-09T03:53:18;17.60;99.90
62998;DHT22;55949;52.590;7.330;2022-09-09T03:54:19;17.70;99.90
62998;DHT22;55949;52.590;7.330;2022-09-09T03:55:20;17.70;99.90
62998;DHT22;55949;52.590;7.330;2022-09-09T03:56:21;17.70;99.90
62998;DHT22;55949;52.590;7.330;2022-09-09T03:57:22;17.70;99.90
62998;DHT22;55949;52.590;7.330;2022-09-09T03:58:23;17.60;99.90
62998;DHT22;55949;52.590;7.330;2022-09-09T03:59:27;17.50;99.90
62998;DHT22;55949;52.590;7.330;2022-09-09T04:00:28;17.40;99.90
62998;DHT22;55949;52.590;7.330;2022-09-09T04:01:29;17.40;99.90
62998;DHT22;55949;52.590;7.330;2022-09-09T04:02:30;17.50;99.90
62998;DHT22;55949;52.590;7.330;2022-09-09T04:03:31;17.40;99.90
62998;DHT22;55949;52.590;7.330;2022-09-09T04:04:32;17.40;99.90
62998;DHT22;55949;52.590;7.330;2022-09-09T04:05:33;17.40;99.90
62998;DHT22;55949;52.590;7.330;2022-09-09T04:06:35;17.30;99.90
62998;DHT22;55949;52.590;7.330;2022-09-09T04:07:35;17.40;99.90
62998;DHT22;55949;52.590;7.330;2022-09-09T04:08:36;17.40;99.90
62998;DHT22;55949;52.590;7.330;2022-09-09T04:09:38;17.30;99.90
62998;DHT22;55949;52.590;7.330;2022-09-09T04:10:39;17.20;99.90
62998;DHT22;55949;52.590;7.330;2022-09-09T04:11:40;17.20;99.90
62998;DHT22;55949;52.590;7.330;2022-09-09T04:12:41;17.20;99.90
62998;DHT22;55949;52.590;7.330;2022-09-09T04:13:42;17.40;99.90
62998;DHT22;55949;52.590;7.330;2022-09-09T04:14:42;17.60;99.90
62998;DHT22;55949;52.590;7.330;2022-09-09T04:15:44;17.80;99.90
62998;DHT22;55949;52.590;7.330;2022-09-09T04:16:50;17.80;99.90
62998;DHT22;55949;52.590;7.330;2022-09-09T04:17:51;17.90;99.90
62998;DHT22;55949;52.590;7.330;2022-09-09T04:18:51;18.10;99.90
62998;DHT22;55949;52.590;7.330;2022-09-09T04:19:53;18.20;99.90
62998;DHT22;55949;52.590;7.330;2022-09-09T04:20:54;18.30;99.90
62998;DHT22;55949;52.590;7.330;2022-09-09T04:21:57;18.30;99.90
62998;DHT22;55949;52.590;7.330;2022-09-09T04:22:58;18.40;99.90
62998;DHT22;55949;52.590;7.330;2022-09-09T04:23:59;18.40;99.90
62998;DHT22;55949;52.590;7.330;2022-09-09T04:25:00;18.50;99.90
62998;DHT22;55949;52.590;7.330;2022-09-09T04:26:02;18.40;99.90
62998;DHT22;55949;52.590;7.330;2022-09-09T04:27:03;18.50;99.90
62998;DHT22;55949;52.590;7.330;2022-09-09T04:28:04;18.40;99.90
62998;DHT22;55949;52.590;7.330;2022-09-09T04:29:05;18.20;99.90
62998;DHT22;55949;52.590;7.330;2022-09-09T04:30:08;18.20;99.90
62998;DHT22;55949;52.590;7.330;2022-09-09T04:31:20;18.20;99.90
62998;DHT22;55949;52.590;7.330;2022-09-09T04:32:23;18.00;99.90
62998;DHT22;55949;52.590;7.330;2022-09-09T04:33:25;17.90;99.90
62998;DHT22;55949;52.590;7.330;2022-09-09T04:34:28;17.80;99.90
62998;DHT22;55949;52.590;7.330;2022-09-09T04:35:30;17.90;99.90
62998;DHT22;55949;52.590;7.330;2022-09-09T04:36:32;17.80;99.90
62998;DHT22;55949;52.590;7.330;2022-09-09T04:37:33;18.00;99.90
62998;DHT22;55949;52.590;7.330;2022-09-09T04:38:34;18.10;99.90
62998;DHT22;55949;52.590;7.330;2022-09-09T04:39:34;17.90;99.90
62998;DHT22;55949;52.590;7.330;2022-09-09T04:40:35;17.80;99.90
62998;DHT22;55949;52.590;7.330;2022-09-09T04:41:36;17.70;99.90
62998;DHT22;55949;52.590;7.330;2022-09-09T04:42:38;17.80;99.90
62998;DHT22;55949;52.590;7.330;2022-09-09T04:43:39;17.80;99.90
62998;DHT22;55949;52.590;7.330;2022-09-09T04:44:40;17.80;99.90
62998;DHT22;55949;52.590;7.330;2022-09-09T04:45:42;17.70;99.90
62998;DHT22;55949;52.590;7.330;2022-09-09T04:46:43;17.50;99.90
62998;DHT22;55949;52.590;7.330;2022-09-09T04:47:44;17.50;99.90
62998;DHT22;55949;52.590;7.330;2022-09-09T04:48:44;17.40;99.90
62998;DHT22;55949;52.590;7.330;2022-09-09T04:49:45;17.30;99.90
62998;DHT22;55949;52.590;7.330;2022-09-09T04:51:57;17.50;99.90
62998;DHT22;55949;52.590;7.330;2022-09-09T04:53:02;17.50;99.90
62998;DHT22;55949;52.590;7.330;2022-09-09T04:54:03;17.50;99.90
62998;DHT22;55949;52.590;7.330;2022-09-09T04:55:04;17.50;99.90
62998;DHT22;55949;52.590;7.330;2022-09-09T04:56:07;17.60;99.90
62998;DHT22;55949;52.590;7.330;2022-09-09T04:57:10;17.50;99.90
62998;DHT22;55949;52.590;7.330;2022-09-09T04:58:11;17.50;99.90
62998;DHT22;55949;52.590;7.330;2022-09-09T04:59:12;17.40;99.90
62998;DHT22;55949;52.590;7.330;2022-09-09T05:00:13;17.30;99.90
62998;DHT22;55949;52.590;7.330;2022-09-09T05:01:19;17.20;99.90
62998;DHT22;55949;52.590;7.330;2022-09-09T05:02:21;17.20;99.90
62998;DHT22;55949;52.590;7.330;2022-09-09T05:03:22;17.30;99.90
62998;DHT22;55949;52.590;7.330;2022-09-09T05:04:23;17.40;99.90
62998;DHT22;55949;52.590;7.330;2022-09-09T05:05:23;17.50;99.90
62998;DHT22;55949;52.590;7.330;2022-09-09T05:06:25;17.50;99.90
62998;DHT22;55949;52.590;7.330;2022-09-09T05:07:27;17.60;99.90
62998;DHT22;55949;52.590;7.330;2022-09-09T05:08:28;17.60;99.90
62998;DHT22;55949;52.590;7.330;2022-09-09T05:09:28;17.60;99.90
62998;DHT22;55949;52.590;7.330;2022-09-09T05:10:29;17.40;99.90
62998;DHT22;55949;52.590;7.330;2022-09-09T05:11:32;17.30;99.90
62998;DHT22;55949;52.590;7.330;2022-09-09T05:12:33;17.20;99.90
62998;DHT22;55949;52.590;7.330;2022-09-09T05:13:33;17.20;99.90
62998;DHT22;55949;52.590;7.330;2022-09-09T05:14:34;17.10;99.90
62998;DHT22;55949;52.590;7.330;2022-09-09T05:15:37;17.00;99.90
62998;DHT22;55949;52.590;7.330;2022-09-09T05:16:38;17.00;99.90
62998;DHT22;55949;52.590;7.330;2022-09-09T05:17:39;17.00;99.90
62998;DHT22;55949;52.590;7.330;2022-09-09T05:18:41;17.00;99.90
62998;DHT22;55949;52.590;7.330;2022-09-09T05:19:45;17.00;99.90
62998;DHT22;55949;52.590;7.330;2022-09-09T05:20:46;16.90;99.90
62998;DHT22;55949;52.590;7.330;2022-09-09T05:21:46;16.80;99.90
62998;DHT22;55949;52.590;7.330;2022-09-09T05:22:47;16.70;99.90
62998;DHT22;55949;52.590;7.330;2022-09-09T05:23:48;16.70;99.90
62998;DHT22;55949;52.590;7.330;2022-09-09T05:24:52;16.60;99.90
62998;DHT22;55949;52.590;7.330;2022-09-09T05:25:59;16.70;99.90
62998;DHT22;55949;52.590;7.330;2022-09-09T05:27:00;16.70;99.90
62998;DHT22;55949;52.590;7.330;2022-09-09T05:28:02;16.80;99.90
62998;DHT22;55949;52.590;7.330;2022-09-09T05:29:03;16.90;99.90
62998;DHT22;55949;52.590;7.330;2022-09-09T05:30:04;17.00;99.90
62998;DHT22;55949;52.590;7.330;2022-09-09T05:31:07;17.00;99.90
62998;DHT22;55949;52.590;7.330;2022-09-09T05:32:08;17.00;99.90
62998;DHT22;55949;52.590;7.330;2022-09-09T05:33:10;16.90;99.90
62998;DHT22;55949;52.590;7.330;2022-09-09T05:34:11;17.10;99.90
62998;DHT22;55949;52.590;7.330;2022-09-09T05:35:12;17.10;99.90
62998;DHT22;55949;52.590;7.330;2022-09-09T05:36:16;17.00;99.90
62998;DHT22;55949;52.590;7.330;2022-09-09T05:37:17;17.10;99.90
62998;DHT22;55949;52.590;7.330;2022-09-09T05:38:19;17.20;99.90
62998;DHT22;55949;52.590;7.330;2022-09-09T05:39:20;17.20;99.90
62998;DHT22;55949;52.590;7.330;2022-09-09T05:40:21;17.20;99.90
62998;DHT22;55949;52.590;7.330;2022-09-09T05:41:22;17.20;99.90
62998;DHT22;55949;52.590;7.330;2022-09-09T05:42:23;17.20;99.90
62998;DHT22;55949;52.590;7.330;2022-09-09T05:43:25;17.10;99.90
62998;DHT22;55949;52.590;7.330;2022-09-09T05:44:26;17.00;99.90
62998;DHT22;55949;52.590;7.330;2022-09-09T05:45:28;16.90;99.90
62998;DHT22;55949;52.590;7.330;2022-09-09T05:46:29;17.00;99.90
62998;DHT22;55949;52.590;7.330;2022-09-09T05:47:30;17.00;99.90
62998;DHT22;55949;52.590;7.330;2022-09-09T05:48:32;17.20;99.90
62998;DHT22;55949;52.590;7.330;2022-09-09T05:49:33;17.40;99.90
62998;DHT22;55949;52.590;7.330;2022-09-09T05:50:34;17.40;99.90
62998;DHT22;55949;52.590;7.330;2022-09-09T05:51:35;17.40;99.90
62998;DHT22;55949;52.590;7.330;2022-09-09T05:52:35;17.30;99.90
62998;DHT22;55949;52.590;7.330;2022-09-09T05:53:36;17.30;99.90
62998;DHT22;55949;52.590;7.330;2022-09-09T05:54:37;17.30;99.90
62998;DHT22;55949;52.590;7.330;2022-09-09T05:55:38;17.20;99.90
62998;DHT22;55949;52.590;7.330;2022-09-09T05:56:39;17.10;99.90
62998;DHT22;55949;52.590;7.330;2022-09-09T05:57:39;17.20;99.90
62998;DHT22;55949;52.590;7.330;2022-09-09T05:58:41;17.20;99.90
62998;DHT22;55949;52.590;7.330;2022-09-09T05:59:45;17.20;99.90
62998;DHT22;55949;52.590;7.330;2022-09-09T06:00:46;17.20;99.90
62998;DHT22;55949;52.590;7.330;2022-09-09T06:01:46;17.30;99.90
62998;DHT22;55949;52.590;7.330;2022-09-09T06:02:51;17.40;99.90
62998;DHT22;55949;52.590;7.330;2022-09-09T06:03:53;17.50;99.90
62998;DHT22;55949;52.590;7.330;2022-09-09T06:04:54;17.60;99.90
62998;DHT22;55949;52.590;7.330;2022-09-09T06:06:06;17.70;99.90
62998;DHT22;55949;52.590;7.330;2022-09-09T06:07:07;17.70;99.90
62998;DHT22;55949;52.590;7.330;2022-09-09T06:08:08;17.80;99.90
62998;DHT22;55949;52.590;7.330;2022-09-09T06:09:09;17.90;99.90
62998;DHT22;55949;52.590;7.330;2022-09-09T06:10:11;17.80;99.90
62998;DHT22;55949;52.590;7.330;2022-09-09T06:11:16;17.80;99.90
62998;DHT22;55949;52.590;7.330;2022-09-09T06:12:17;17.70;99.90
62998;DHT22;55949;52.590;7.330;2022-09-09T06:13:18;17.80;99.90
62998;DHT22;55949;52.590;7.330;2022-09-09T06:14:20;17.80;99.90
62998;DHT22;55949;52.590;7.330;2022-09-09T06:15:22;17.80;99.90
62998;DHT22;55949;52.590;7.330;2022-09-09T06:16:24;17.70;99.90
62998;DHT22;55949;52.590;7.330;2022-09-09T06:17:25;17.60;99.90
62998;DHT22;55949;52.590;7.330;2022-09-09T06:18:28;17.60;99.90
62998;DHT22;55949;52.590;7.330;2022-09-09T06:19:30;17.60;99.90
62998;DHT22;55949;52.590;7.330;2022-09-09T06:20:31;17.60;99.90
62998;DHT22;55949;52.590;7.330;2022-09-09T06:21:36;17.60;99.90
62998;DHT22;55949;52.590;7.330;2022-09-09T06:22:41;17.50;99.90
62998;DHT22;55949;52.590;7.330;2022-09-09T06:23:42;17.60;99.90
62998;DHT22;55949;52.590;7.330;2022-09-09T06:24:44;17.70;99.90
62998;DHT22;55949;52.590;7.330;2022-09-09T06:25:45;17.80;99.90
62998;DHT22;55949;52.590;7.330;2022-09-09T06:26:45;17.90;99.90
62998;DHT22;55949;52.590;7.330;2022-09-09T06:27:49;17.90;99.90
62998;DHT22;55949;52.590;7.330;2022-09-09T06:28:51;17.80;99.90
62998;DHT22;55949;52.590;7.330;2022-09-09T06:29:53;17.90;99.90
62998;DHT22;55949;52.590;7.330;2022-09-09T06:31:04;17.80;99.90
62998;DHT22;55949;52.590;7.330;2022-09-09T06:32:05;17.80;99.90
62998;DHT22;55949;52.590;7.330;2022-09-09T06:33:08;17.90;99.90
62998;DHT22;55949;52.590;7.330;2022-09-09T06:34:10;18.00;99.90
62998;DHT22;55949;52.590;7.330;2022-09-09T06:35:10;18.10;99.90
62998;DHT22;55949;52.590;7.330;2022-09-09T06:36:14;18.10;99.90
62998;DHT22;55949;52.590;7.330;2022-09-09T06:37:15;18.10;99.90
62998;DHT22;55949;52.590;7.330;2022-09-09T06:38:16;18.10;99.90
62998;DHT22;55949;52.590;7.330;2022-09-09T06:39:16;18.20;99.90
62998;DHT22;55949;52.590;7.330;2022-09-09T06:40:17;18.20;99.90
62998;DHT22;55949;52.590;7.330;2022-09-09T06:41:19;18.20;99.90
62998;DHT22;55949;52.590;7.330;2022-09-09T06:42:20;18.30;99.90
62998;DHT22;55949;52.590;7.330;2022-09-09T06:43:22;18.20;99.90
62998;DHT22;55949;52.590;7.330;2022-09-09T06:44:23;18.30;99.90
62998;DHT22;55949;52.590;7.330;2022-09-09T06:45:24;18.30;99.90
62998;DHT22;55949;52.590;7.330;2022-09-09T06:46:30;18.40;99.90
62998;DHT22;55949;52.590;7.330;2022-09-09T06:47:32;18.50;99.90
62998;DHT22;55949;52.590;7.330;2022-09-09T06:48:34;18.60;99.90
62998;DHT22;55949;52.590;7.330;2022-09-09T06:49:34;18.70;99.90
62998;DHT22;55949;52.590;7.330;2022-09-09T06:50:35;18.70;99.90
62998;DHT22;55949;52.590;7.330;2022-09-09T06:51:37;18.70;99.90
62998;DHT22;55949;52.590;7.330;2022-09-09T06:52:46;18.80;99.90
62998;DHT22;55949;52.590;7.330;2022-09-09T06:53:51;18.70;99.90
62998;DHT22;55949;52.590;7.330;2022-09-09T06:54:52;18.80;99.90
62998;DHT22;55949;52.590;7.330;2022-09-09T06:55:54;18.70;99.90
62998;DHT22;55949;52.590;7.330;2022-09-09T06:56:55;19.00;99.90
62998;DHT22;55949;52.590;7.330;2022-09-09T06:57:55;19.10;99.90
62998;DHT22;55949;52.590;7.330;2022-09-09T06:58:59;19.10;99.90
62998;DHT22;55949;52.590;7.330;2022-09-09T07:00:04;19.30;99.90
62998;DHT22;55949;52.590;7.330;2022-09-09T07:01:06;19.40;99.90
62998;DHT22;55949;52.590;7.330;2022-09-09T07:02:07;19.50;99.90
62998;DHT22;55949;52.590;7.330;2022-09-09T07:03:10;19.70;99.90
62998;DHT22;55949;52.590;7.330;2022-09-09T07:04:10;19.80;99.90
62998;DHT22;55949;52.590;7.330;2022-09-09T07:05:11;19.90;99.90
62998;DHT22;55949;52.590;7.330;2022-09-09T07:06:20;19.90;99.90
62998;DHT22;55949;52.590;7.330;2022-09-09T07:07:21;20.00;99.90
62998;DHT22;55949;52.590;7.330;2022-09-09T07:08:24;20.10;99.90
62998;DHT22;55949;52.590;7.330;2022-09-09T07:09:25;19.90;99.90
62998;DHT22;55949;52.590;7.330;2022-09-09T07:10:27;19.60;99.90
62998;DHT22;55949;52.590;7.330;2022-09-09T07:11:30;19.70;99.90
62998;DHT22;55949;52.590;7.330;2022-09-09T07:12:31;19.70;99.90
62998;DHT22;55949;52.590;7.330;2022-09-09T07:13:32;19.70;99.90
62998;DHT22;55949;52.590;7.330;2022-09-09T07:14:33;19.70;99.90
62998;DHT22;55949;52.590;7.330;2022-09-09T07:15:36;19.70;99.90
62998;DHT22;55949;52.590;7.330;2022-09-09T07:16:38;19.70;99.90
62998;DHT22;55949;52.590;7.330;2022-09-09T07:17:38;19.60;99.90
62998;DHT22;55949;52.590;7.330;2022-09-09T07:18:40;19.60;99.90
62998;DHT22;55949;52.590;7.330;2022-09-09T07:19:42;19.50;99.90
62998;DHT22;55949;52.590;7.330;2022-09-09T07:20:52;19.50;99.90
62998;DHT22;55949;52.590;7.330;2022-09-09T07:21:52;19.30;99.90
62998;DHT22;55949;52.590;7.330;2022-09-09T07:22:55;19.30;99.90
62998;DHT22;55949;52.590;7.330;2022-09-09T07:23:57;19.40;99.90
62998;DHT22;55949;52.590;7.330;2022-09-09T07:24:57;19.50;99.90